createdAt,value
2023-05-10T00:00:46.455Z,98809.22
2023-05-10T00:03:13.557Z,98803.59
2023-05-10T00:05:41.087Z,98802.97
2023-05-10T00:08:08.548Z,98809.78
2023-05-10T00:10:36.271Z,98810.81
2023-05-10T00:13:03.902Z,98806.28
2023-05-10T00:15:32.092Z,98805.69
2023-05-10T00:17:59.169Z,98802.94
2023-05-10T00:20:26.469Z,98795.09
2023-05-10T00:22:55.152Z,98797.88
2023-05-10T00:25:22.881Z,98801.81
2023-05-10T00:27:50.815Z,98806.13
2023-05-10T00:30:18.699Z,98798.84
2023-05-10T00:32:46.153Z,98794.69
2023-05-10T00:35:13.618Z,98801.28
2023-05-10T00:37:40.770Z,98794.78
2023-05-10T00:40:08.736Z,98796.56
2023-05-10T00:42:35.845Z,98790.41
2023-05-10T00:45:03.787Z,98790.84
2023-05-10T00:47:31.034Z,98788.13
2023-05-10T00:49:59.234Z,98788.63
2023-05-10T00:52:27.148Z,98787.09
2023-05-10T00:54:54.847Z,98782.22
2023-05-10T00:57:22.765Z,98781.63
2023-05-10T00:59:51.200Z,98781.78
2023-05-10T01:02:18.374Z,98778.09
2023-05-10T01:04:45.770Z,98779.56
2023-05-10T01:07:13.163Z,98777.75
2023-05-10T01:09:40.478Z,98773.16
2023-05-10T01:12:08.463Z,98775.00
2023-05-10T01:14:37.431Z,98773.81
2023-05-10T01:17:06.273Z,98766.75
2023-05-10T01:19:36.174Z,98765.06
2023-05-10T01:22:30.772Z,98764.84
2023-05-10T01:25:03.105Z,98764.66
2023-05-10T01:27:55.283Z,98766.25
2023-05-10T01:31:04.404Z,98770.31
2023-05-10T01:33:37.866Z,98769.31
2023-05-10T01:36:10.564Z,98760.59
2023-05-10T01:38:51.935Z,98768.13
2023-05-10T01:41:37.773Z,98752.41
2023-05-10T01:44:31.997Z,98766.34
2023-05-10T01:47:06.614Z,98762.56
2023-05-10T01:49:41.707Z,98768.69
2023-05-10T01:52:12.755Z,98757.81
2023-05-10T01:54:44.238Z,98751.94
2023-05-10T01:57:14.928Z,98753.63
2023-05-10T01:59:44.589Z,98752.41
2023-05-10T02:02:46.471Z,98747.69
2023-05-10T02:05:15.503Z,98749.69
2023-05-10T02:07:43.712Z,98738.66
2023-05-10T02:10:11.627Z,98738.16
2023-05-10T02:12:42.843Z,98743.13
2023-05-10T02:15:11.585Z,98743.03
2023-05-10T02:17:40.358Z,98739.28
2023-05-10T02:20:08.857Z,98741.28
2023-05-10T02:22:37.569Z,98740.44
2023-05-10T02:25:05.303Z,98738.84
2023-05-10T02:27:33.155Z,98737.56
2023-05-10T02:30:00.706Z,98733.47
2023-05-10T02:32:28.839Z,98730.72
2023-05-10T02:34:56.541Z,98730.59
2023-05-10T02:37:24.115Z,98723.69
2023-05-10T02:39:52.516Z,98729.13
2023-05-10T02:42:25.437Z,98732.50
2023-05-10T02:44:55.071Z,98728.25
2023-05-10T02:47:22.952Z,98730.34
2023-05-10T02:49:50.249Z,98730.13
2023-05-10T02:52:22.477Z,98734.22
2023-05-10T02:54:51.911Z,98730.56
2023-05-10T02:57:25.714Z,98730.06
2023-05-10T02:59:52.969Z,98732.50
2023-05-10T03:02:21.571Z,98726.91
2023-05-10T03:04:48.700Z,98732.19
2023-05-10T03:07:16.704Z,98732.97
2023-05-10T03:09:43.756Z,98733.88
2023-05-10T03:12:41.703Z,98736.47
2023-05-10T03:15:31.691Z,98731.00
2023-05-10T03:18:29.961Z,98729.81
2023-05-10T03:21:01.098Z,98735.41
2023-05-10T03:23:35.742Z,98740.88
2023-05-10T03:26:03.087Z,98730.22
2023-05-10T03:28:31.209Z,98726.88
2023-05-10T03:30:58.851Z,98728.31
2023-05-10T03:33:26.635Z,98728.78
2023-05-10T03:35:53.666Z,98733.69
2023-05-10T03:38:21.181Z,98723.41
2023-05-10T03:40:48.575Z,98721.47
2023-05-10T03:43:16.160Z,98722.69
2023-05-10T03:45:43.378Z,98722.13
2023-05-10T03:48:10.955Z,98724.31
2023-05-10T03:50:38.077Z,98720.78
2023-05-10T03:53:05.701Z,98712.34
2023-05-10T03:55:35.641Z,98715.16
2023-05-10T03:58:02.963Z,98712.03
2023-05-10T04:00:30.053Z,98723.44
2023-05-10T04:02:57.626Z,98710.75
2023-05-10T04:05:24.750Z,98716.03
2023-05-10T04:07:52.342Z,98711.56
2023-05-10T04:10:19.774Z,98716.44
2023-05-10T04:12:47.170Z,98714.78
2023-05-10T04:15:14.236Z,98707.34
2023-05-10T04:17:41.856Z,98716.13
2023-05-10T04:20:09.548Z,98716.88
2023-05-10T04:22:36.880Z,98720.13
2023-05-10T04:25:04.510Z,98717.84
2023-05-10T04:27:32.334Z,98718.41
2023-05-10T04:29:59.581Z,98715.47
2023-05-10T04:32:27.098Z,98721.41
2023-05-10T04:34:55.545Z,98713.16
2023-05-10T04:37:24.141Z,98715.81
2023-05-10T04:39:51.505Z,98718.94
2023-05-10T04:42:18.911Z,98717.56
2023-05-10T04:44:45.796Z,98718.06
2023-05-10T04:47:14.343Z,98716.25
2023-05-10T04:49:41.350Z,98714.44
2023-05-10T04:52:08.632Z,98722.91
2023-05-10T04:54:35.947Z,98727.91
2023-05-10T04:57:03.247Z,98718.63
2023-05-10T04:59:30.242Z,98714.22
2023-05-10T05:01:58.712Z,98709.84
2023-05-10T05:04:26.481Z,98707.22
2023-05-10T05:06:54.103Z,98703.41
2023-05-10T05:09:21.607Z,98698.03
2023-05-10T05:11:49.569Z,98702.81
2023-05-10T05:14:16.800Z,98702.69
2023-05-10T05:16:45.277Z,98695.03
2023-05-10T05:19:12.376Z,98702.59
2023-05-10T05:21:40.264Z,98693.63
2023-05-10T05:24:07.904Z,98697.06
2023-05-10T05:26:35.230Z,98701.25
2023-05-10T05:29:02.853Z,98706.00
2023-05-10T05:31:30.409Z,98702.19
2023-05-10T05:33:57.563Z,98703.41
2023-05-10T05:36:25.082Z,98704.59
2023-05-10T05:38:52.634Z,98696.72
2023-05-10T05:41:19.959Z,98710.59
2023-05-10T05:43:47.364Z,98709.84
2023-05-10T05:46:15.094Z,98704.38
2023-05-10T05:48:42.251Z,98700.19
2023-05-10T05:51:09.766Z,98706.50
2023-05-10T05:53:37.179Z,98701.84
2023-05-10T05:56:04.779Z,98700.47
2023-05-10T05:58:31.941Z,98709.41
2023-05-10T06:00:59.476Z,98705.69
2023-05-10T06:03:26.713Z,98711.47
2023-05-10T06:05:54.241Z,98702.59
2023-05-10T06:08:21.672Z,98706.41
2023-05-10T06:10:49.092Z,98708.06
2023-05-10T06:13:16.803Z,98697.22
2023-05-10T06:15:44.603Z,98706.19
2023-05-10T06:18:12.300Z,98703.97
2023-05-10T06:20:39.611Z,98703.09
2023-05-10T06:23:07.398Z,98703.38
2023-05-10T06:25:35.055Z,98711.09
2023-05-10T06:28:02.936Z,98708.22
2023-05-10T06:30:30.611Z,98705.44
2023-05-10T06:32:57.779Z,98710.91
2023-05-10T06:35:25.919Z,98712.28
2023-05-10T06:37:53.597Z,98707.38
2023-05-10T06:40:21.086Z,98702.44
2023-05-10T06:42:49.286Z,98701.69
2023-05-10T06:45:17.669Z,98690.84
2023-05-10T06:47:44.950Z,98696.69
2023-05-10T06:50:12.800Z,98691.19
2023-05-10T06:52:40.319Z,98696.16
2023-05-10T06:55:08.169Z,98691.19
2023-05-10T06:57:35.354Z,98699.50
2023-05-10T07:00:05.449Z,98688.13
2023-05-10T07:02:32.632Z,98695.78
2023-05-10T07:05:02.881Z,98692.84
2023-05-10T07:07:30.983Z,98695.16
2023-05-10T07:09:59.084Z,98684.50
2023-05-10T07:12:26.619Z,98682.97
2023-05-10T07:14:54.311Z,98690.88
2023-05-10T07:17:21.562Z,98691.88
2023-05-10T07:19:48.944Z,98680.75
2023-05-10T07:22:17.748Z,98691.72
2023-05-10T07:24:45.115Z,98687.28
2023-05-10T07:27:12.520Z,98688.00
2023-05-10T07:29:40.210Z,98686.59
2023-05-10T07:32:07.387Z,98677.19
2023-05-10T07:34:35.140Z,98683.16
2023-05-10T07:37:02.866Z,98683.41
2023-05-10T07:39:30.445Z,98678.53
2023-05-10T07:41:58.203Z,98675.75
2023-05-10T07:44:25.798Z,98679.28
2023-05-10T07:46:53.643Z,98675.94
2023-05-10T07:49:21.133Z,98668.56
2023-05-10T07:51:48.487Z,98667.53
2023-05-10T07:54:15.871Z,98669.25
2023-05-10T07:56:46.946Z,98663.38
2023-05-10T07:59:18.880Z,98657.16
2023-05-10T08:01:46.589Z,98674.06
2023-05-10T08:04:14.209Z,98668.75
2023-05-10T08:06:42.026Z,98672.09
2023-05-10T08:09:09.975Z,98671.22
2023-05-10T08:11:37.219Z,98671.88
2023-05-10T08:14:04.693Z,98664.06
2023-05-10T08:16:31.995Z,98671.94
2023-05-10T08:18:59.489Z,98668.19
2023-05-10T08:21:27.261Z,98661.47
2023-05-10T08:23:54.714Z,98663.03
2023-05-10T08:26:22.938Z,98665.94
2023-05-10T08:28:50.780Z,98666.78
2023-05-10T08:31:17.909Z,98665.97
2023-05-10T08:33:45.886Z,98663.56
2023-05-10T08:36:15.314Z,98668.56
2023-05-10T08:38:43.023Z,98657.13
2023-05-10T08:41:11.597Z,98656.81
2023-05-10T08:43:40.301Z,98662.72
2023-05-10T08:46:08.973Z,98661.25
2023-05-10T08:48:36.771Z,98660.59
2023-05-10T08:51:04.419Z,98656.38
2023-05-10T08:53:34.461Z,98657.00
2023-05-10T08:56:04.999Z,98665.19
2023-05-10T08:58:32.443Z,98651.63
2023-05-10T09:01:00.647Z,98657.88
2023-05-10T09:03:28.489Z,98661.75
2023-05-10T09:05:57.035Z,98653.25
2023-05-10T09:08:28.173Z,98665.06
2023-05-10T09:10:58.442Z,98653.34
2023-05-10T09:13:26.173Z,98646.47
2023-05-10T09:15:53.668Z,98636.94
2023-05-10T09:18:21.816Z,98644.56
2023-05-10T09:20:50.139Z,98654.94
2023-05-10T09:23:17.744Z,98648.78
2023-05-10T09:25:45.227Z,98650.94
2023-05-10T09:28:13.250Z,98653.41
2023-05-10T09:30:40.825Z,98643.44
2023-05-10T09:33:09.242Z,98644.56
2023-05-10T09:35:37.314Z,98640.19
2023-05-10T09:38:05.797Z,98637.81
2023-05-10T09:40:33.644Z,98642.22
2023-05-10T09:43:08.275Z,98636.13
2023-05-10T09:45:38.541Z,98639.94
2023-05-10T09:48:07.149Z,98643.13
2023-05-10T09:50:35.403Z,98635.72
2023-05-10T09:53:04.933Z,98641.66
2023-05-10T09:55:47.112Z,98639.50
2023-05-10T09:58:15.627Z,98631.34
2023-05-10T10:00:52.737Z,98630.03
2023-05-10T10:03:21.862Z,98629.03
2023-05-10T10:05:50.039Z,98625.00
2023-05-10T10:08:18.428Z,98626.44
2023-05-10T10:10:47.167Z,98619.09
2023-05-10T10:13:15.221Z,98626.91
2023-05-10T10:15:44.131Z,98622.25
2023-05-10T10:18:15.667Z,98602.41
2023-05-10T10:20:43.237Z,98598.47
2023-05-10T10:23:10.912Z,98605.81
2023-05-10T10:25:39.316Z,98605.13
2023-05-10T10:28:30.152Z,98604.97
2023-05-10T10:31:02.742Z,98600.50
2023-05-10T10:34:01.176Z,98606.69
2023-05-10T10:36:31.549Z,98598.72
2023-05-10T10:39:04.401Z,98600.41
2023-05-10T10:41:33.434Z,98591.16
2023-05-10T10:44:26.597Z,98589.69
2023-05-10T10:47:01.129Z,98582.66
2023-05-10T10:49:29.006Z,98587.03
2023-05-10T10:52:35.399Z,98585.59
2023-05-10T10:55:12.156Z,98581.59
2023-05-10T10:57:42.613Z,98574.22
2023-05-10T11:00:19.977Z,98571.06
2023-05-10T11:02:51.270Z,98564.16
2023-05-10T11:05:34.178Z,98570.13
2023-05-10T11:08:02.915Z,98578.84
2023-05-10T11:10:30.547Z,98579.81
2023-05-10T11:13:02.141Z,98570.66
2023-05-10T11:15:31.560Z,98573.13
2023-05-10T11:17:58.654Z,98570.06
2023-05-10T11:20:34.427Z,98561.66
2023-05-10T11:23:14.078Z,98558.81
2023-05-10T11:25:48.247Z,98566.16
2023-05-10T11:28:15.838Z,98563.16
2023-05-10T11:30:45.457Z,98560.84
2023-05-10T11:33:17.401Z,98562.66
2023-05-10T11:35:45.161Z,98557.34
2023-05-10T11:38:13.423Z,98570.50
2023-05-10T11:40:41.577Z,98565.44
2023-05-10T11:43:11.158Z,98567.03
2023-05-10T11:45:38.653Z,98558.41
2023-05-10T11:48:06.135Z,98559.88
2023-05-10T11:50:34.038Z,98559.50
2023-05-10T11:53:01.085Z,98553.88
2023-05-10T11:55:28.413Z,98554.84
2023-05-10T11:57:55.898Z,98554.91
2023-05-10T12:00:23.366Z,98564.88
2023-05-10T12:02:51.196Z,98556.03
2023-05-10T12:05:18.847Z,98568.06
2023-05-10T12:07:46.351Z,98564.34
2023-05-10T12:10:16.359Z,98557.28
2023-05-10T12:12:45.397Z,98564.00
2023-05-10T12:15:21.362Z,98560.69
2023-05-10T12:17:49.576Z,98556.75
2023-05-10T12:20:21.751Z,98561.44
2023-05-10T12:22:55.219Z,98561.38
2023-05-10T12:25:24.543Z,98567.38
2023-05-10T12:27:57.062Z,98562.19
2023-05-10T12:30:26.426Z,98557.72
2023-05-10T12:32:54.443Z,98556.53
2023-05-10T12:35:23.350Z,98542.84
2023-05-10T12:37:51.091Z,98553.22
2023-05-10T12:40:18.922Z,98554.16
2023-05-10T12:42:46.405Z,98549.19
2023-05-10T12:45:14.150Z,98548.09
2023-05-10T12:47:43.887Z,98543.66
2023-05-10T12:50:12.558Z,98546.81
2023-05-10T12:52:40.182Z,98545.22
2023-05-10T12:55:07.962Z,98535.31
2023-05-10T12:57:35.046Z,98539.28
2023-05-10T13:00:02.713Z,98545.81
2023-05-10T13:02:30.415Z,98542.66
2023-05-10T13:04:58.230Z,98541.19
2023-05-10T13:07:25.723Z,98544.72
2023-05-10T13:09:53.493Z,98545.34
2023-05-10T13:12:21.168Z,98540.47
2023-05-10T13:14:50.961Z,98537.78
2023-05-10T13:17:18.299Z,98539.53
2023-05-10T13:19:45.993Z,98532.56
2023-05-10T13:22:13.199Z,98528.31
2023-05-10T13:24:41.178Z,98524.72
2023-05-10T13:27:08.365Z,98520.94
2023-05-10T13:29:36.204Z,98517.72
2023-05-10T13:32:03.458Z,98521.78
2023-05-10T13:34:31.458Z,98515.53
2023-05-10T13:36:58.908Z,98508.97
2023-05-10T13:39:26.688Z,98505.88
2023-05-10T13:41:55.703Z,98506.97
2023-05-10T13:44:23.937Z,98508.88
2023-05-10T13:46:51.418Z,98505.97
2023-05-10T13:49:19.218Z,98499.75
2023-05-10T13:51:46.597Z,98501.09
2023-05-10T13:54:15.040Z,98494.16
2023-05-10T13:56:43.950Z,98495.22
2023-05-10T13:59:11.939Z,98486.25
2023-05-10T14:01:39.438Z,98491.84
2023-05-10T14:04:07.487Z,98493.84
2023-05-10T14:06:35.085Z,98484.94
2023-05-10T14:09:02.586Z,98488.50
2023-05-10T14:11:29.607Z,98495.06
2023-05-10T14:13:57.702Z,98491.53
2023-05-10T14:16:25.202Z,98492.03
2023-05-10T14:18:52.919Z,98486.78
2023-05-10T14:21:20.508Z,98487.41
2023-05-10T14:23:47.990Z,98484.03
2023-05-10T14:26:15.327Z,98485.09
2023-05-10T14:28:42.980Z,98481.00
2023-05-10T14:31:10.211Z,98478.53
2023-05-10T14:33:37.530Z,98487.09
2023-05-10T14:36:05.279Z,98477.03
2023-05-10T14:38:32.744Z,98477.78
2023-05-10T14:41:00.060Z,98483.94
2023-05-10T14:43:28.815Z,98480.34
2023-05-10T14:45:56.245Z,98471.81
2023-05-10T14:48:23.830Z,98477.88
2023-05-10T14:50:51.692Z,98473.72
2023-05-10T14:53:19.332Z,98469.84
2023-05-10T14:55:47.593Z,98476.75
2023-05-10T14:58:15.486Z,98477.69
2023-05-10T15:00:42.952Z,98477.88
2023-05-10T15:03:10.999Z,98475.03
2023-05-10T15:05:38.838Z,98477.22
2023-05-10T15:08:06.996Z,98483.03
2023-05-10T15:10:34.685Z,98473.84
2023-05-10T15:13:02.792Z,98476.03
2023-05-10T15:15:29.870Z,98482.34
2023-05-10T15:17:57.406Z,98473.91
2023-05-10T15:20:24.462Z,98461.50
2023-05-10T15:22:52.068Z,98475.00
2023-05-10T15:25:19.641Z,98468.25
2023-05-10T15:27:47.297Z,98469.91
2023-05-10T15:30:14.540Z,98470.97
2023-05-10T15:32:42.205Z,98466.75
2023-05-10T15:35:11.451Z,98469.00
2023-05-10T15:37:39.263Z,98476.75
2023-05-10T15:40:07.072Z,98478.22
2023-05-10T15:42:34.722Z,98473.44
2023-05-10T15:45:01.848Z,98475.19
2023-05-10T15:47:31.441Z,98476.03
2023-05-10T15:49:59.326Z,98483.66
2023-05-10T15:52:27.010Z,98471.44
2023-05-10T15:54:54.114Z,98478.69
2023-05-10T15:57:23.126Z,98474.13
2023-05-10T15:59:51.004Z,98474.97
2023-05-10T16:02:19.678Z,98480.22
2023-05-10T16:04:47.377Z,98470.19
2023-05-10T16:07:14.866Z,98477.38
2023-05-10T16:09:42.485Z,98482.56
2023-05-10T16:12:10.964Z,98471.69
2023-05-10T16:14:38.118Z,98475.22
2023-05-10T16:17:06.225Z,98481.75
2023-05-10T16:19:33.673Z,98482.31
2023-05-10T16:22:03.361Z,98487.16
2023-05-10T16:24:31.132Z,98486.03
2023-05-10T16:26:59.014Z,98486.53
2023-05-10T16:29:26.523Z,98477.06
2023-05-10T16:31:54.320Z,98481.59
2023-05-10T16:34:24.550Z,98485.19
2023-05-10T16:36:52.935Z,98485.94
2023-05-10T16:39:20.332Z,98490.78
2023-05-10T16:41:48.645Z,98496.16
2023-05-10T16:44:18.956Z,98494.50
2023-05-10T16:46:48.559Z,98497.09
2023-05-10T16:49:16.554Z,98488.94
2023-05-10T16:51:44.795Z,98496.16
2023-05-10T16:54:13.583Z,98495.91
2023-05-10T16:56:41.666Z,98500.56
2023-05-10T16:59:08.855Z,98494.47
2023-05-10T17:01:37.199Z,98500.97
2023-05-10T17:04:04.897Z,98495.72
2023-05-10T17:06:32.974Z,98502.13
2023-05-10T17:09:01.418Z,98501.59
2023-05-10T17:11:30.174Z,98500.28
2023-05-10T17:13:58.964Z,98498.38
2023-05-10T17:16:27.362Z,98508.34
2023-05-10T17:18:56.782Z,98509.84
2023-05-10T17:21:24.177Z,98521.91
2023-05-10T17:23:51.898Z,98515.16
2023-05-10T17:26:20.525Z,98521.06
2023-05-10T17:28:47.758Z,98516.72
2023-05-10T17:31:16.552Z,98517.94
2023-05-10T17:33:43.829Z,98518.47
2023-05-10T17:36:11.131Z,98516.97
2023-05-10T17:38:38.777Z,98526.38
2023-05-10T17:41:06.940Z,98530.03
2023-05-10T17:43:34.823Z,98518.25
2023-05-10T17:46:02.720Z,98527.38
2023-05-10T17:48:31.150Z,98531.38
2023-05-10T17:50:58.651Z,98531.34
2023-05-10T17:53:26.076Z,98531.00
2023-05-10T17:56:00.405Z,98530.56
2023-05-10T17:58:29.457Z,98536.84
2023-05-10T18:01:00.057Z,98536.38
2023-05-10T18:03:28.134Z,98532.81
2023-05-10T18:05:56.345Z,98543.53
2023-05-10T18:08:27.499Z,98540.25
2023-05-10T18:10:55.256Z,98532.69
2023-05-10T18:13:25.933Z,98539.78
2023-05-10T18:15:54.918Z,98544.84
2023-05-10T18:18:22.502Z,98540.47
2023-05-10T18:20:58.405Z,98540.47
2023-05-10T18:23:26.680Z,98550.47
2023-05-10T18:26:00.327Z,98552.09
2023-05-10T18:28:28.194Z,98552.00
2023-05-10T18:30:56.313Z,98551.66
2023-05-10T18:33:25.586Z,98558.72
2023-05-10T18:35:53.968Z,98560.94
2023-05-10T18:38:23.233Z,98559.16
2023-05-10T18:40:55.956Z,98563.03
2023-05-10T18:43:23.998Z,98569.16
2023-05-10T18:45:52.790Z,98561.22
2023-05-10T18:48:22.748Z,98570.72
2023-05-10T18:50:51.284Z,98569.63
2023-05-10T18:53:19.653Z,98578.13
2023-05-10T18:55:57.771Z,98570.31
2023-05-10T18:58:30.993Z,98581.75
2023-05-10T19:01:00.416Z,98579.94
2023-05-10T19:03:29.628Z,98578.69
2023-05-10T19:05:57.537Z,98587.16
2023-05-10T19:08:25.446Z,98592.03
2023-05-10T19:10:55.161Z,98591.66
2023-05-10T19:13:22.903Z,98592.19
2023-05-10T19:16:06.359Z,98588.88
2023-05-10T19:18:35.173Z,98598.03
2023-05-10T19:21:06.053Z,98597.50
2023-05-10T19:23:34.643Z,98592.75
2023-05-10T19:26:03.529Z,98603.88
2023-05-10T19:28:31.674Z,98594.16
2023-05-10T19:31:07.433Z,98594.69
2023-05-10T19:33:34.750Z,98602.63
2023-05-10T19:36:02.626Z,98595.13
2023-05-10T19:38:29.990Z,98608.06
2023-05-10T19:40:58.741Z,98600.56
2023-05-10T19:43:31.335Z,98604.72
2023-05-10T19:46:01.974Z,98605.25
2023-05-10T19:48:29.284Z,98612.47
2023-05-10T19:51:01.728Z,98612.91
2023-05-10T19:53:29.532Z,98611.91
2023-05-10T19:55:57.968Z,98624.38
2023-05-10T19:58:25.567Z,98612.28
2023-05-10T20:00:53.449Z,98622.72
2023-05-10T20:03:33.980Z,98615.09
2023-05-10T20:06:02.042Z,98617.44
2023-05-10T20:08:29.714Z,98621.88
2023-05-10T20:11:02.712Z,98627.81
2023-05-10T20:13:30.259Z,98627.38
2023-05-10T20:15:58.569Z,98619.00
2023-05-10T20:18:27.079Z,98633.28
2023-05-10T20:20:56.250Z,98629.81
2023-05-10T20:23:23.545Z,98627.03
2023-05-10T20:25:50.988Z,98629.47
2023-05-10T20:28:23.109Z,98631.13
2023-05-10T20:30:55.071Z,98638.44
2023-05-10T20:33:22.932Z,98631.84
2023-05-10T20:35:50.543Z,98622.09
2023-05-10T20:38:18.455Z,98629.56
2023-05-10T20:40:46.688Z,98624.47
2023-05-10T20:43:13.898Z,98626.59
2023-05-10T20:45:41.382Z,98624.53
2023-05-10T20:48:09.699Z,98632.31
2023-05-10T20:50:37.140Z,98630.06
2023-05-10T20:53:04.615Z,98631.22
2023-05-10T20:55:32.159Z,98637.53
2023-05-10T20:57:59.413Z,98628.69
2023-05-10T21:00:26.997Z,98630.28
2023-05-10T21:02:54.671Z,98635.69
2023-05-10T21:05:22.233Z,98638.31
2023-05-10T21:07:49.808Z,98643.03
2023-05-10T21:10:17.532Z,98639.06
2023-05-10T21:12:44.729Z,98645.28
2023-05-10T21:15:12.162Z,98643.41
2023-05-10T21:17:39.264Z,98645.06
2023-05-10T21:20:07.339Z,98649.47
2023-05-10T21:22:34.508Z,98650.09
2023-05-10T21:25:02.164Z,98639.78
2023-05-10T21:27:29.456Z,98642.09
2023-05-10T21:29:56.860Z,98646.03
2023-05-10T21:32:24.065Z,98645.22
2023-05-10T21:34:51.304Z,98645.69
2023-05-10T21:37:18.531Z,98656.09
2023-05-10T21:39:46.010Z,98648.91
2023-05-10T21:42:13.029Z,98657.41
2023-05-10T21:44:40.469Z,98653.44
2023-05-10T21:47:07.530Z,98653.94
2023-05-10T21:49:34.796Z,98655.84
2023-05-10T21:52:02.054Z,98661.81
2023-05-10T21:54:29.628Z,98657.88
2023-05-10T21:56:56.679Z,98658.47
2023-05-10T21:59:24.308Z,98656.66
2023-05-10T22:01:51.552Z,98661.16
2023-05-10T22:04:18.850Z,98652.91
2023-05-10T22:06:45.894Z,98658.63
2023-05-10T22:09:13.350Z,98663.88
2023-05-10T22:11:40.370Z,98664.94
2023-05-10T22:14:07.832Z,98667.44
2023-05-10T22:16:34.993Z,98659.00
2023-05-10T22:19:02.356Z,98674.38
2023-05-10T22:21:29.361Z,98673.31
2023-05-10T22:23:56.841Z,98670.34
2023-05-10T22:26:23.878Z,98668.44
2023-05-10T22:28:51.338Z,98678.03
2023-05-10T22:31:18.518Z,98672.78
2023-05-10T22:33:46.112Z,98678.16
2023-05-10T22:36:15.252Z,98675.41
2023-05-10T22:38:42.816Z,98676.13
2023-05-10T22:41:09.744Z,98681.84
2023-05-10T22:43:37.274Z,98686.03
2023-05-10T22:46:04.848Z,98686.75
2023-05-10T22:48:34.724Z,98690.88
2023-05-10T22:51:01.780Z,98691.81
2023-05-10T22:53:29.444Z,98686.78
2023-05-10T22:55:56.510Z,98697.50
2023-05-10T22:58:24.006Z,98694.66
2023-05-10T23:00:51.468Z,98695.59
2023-05-10T23:03:18.688Z,98688.53
2023-05-10T23:05:45.902Z,98694.75
2023-05-10T23:08:13.687Z,98699.66
2023-05-10T23:10:40.789Z,98696.75
2023-05-10T23:13:08.157Z,98693.88
2023-05-10T23:15:36.465Z,98695.16
2023-05-10T23:18:06.047Z,98705.03
2023-05-10T23:20:33.175Z,98696.78
2023-05-10T23:23:00.657Z,98706.38
2023-05-10T23:25:27.681Z,98708.50
2023-05-10T23:27:55.035Z,98703.19
2023-05-10T23:30:22.334Z,98704.81
2023-05-10T23:32:49.727Z,98704.44
2023-05-10T23:35:16.803Z,98706.53
2023-05-10T23:37:44.336Z,98701.94
2023-05-10T23:40:11.602Z,98705.66
2023-05-10T23:42:39.076Z,98700.41
2023-05-10T23:45:06.842Z,98701.97
2023-05-10T23:47:34.167Z,98702.78
2023-05-10T23:50:01.771Z,98700.28
2023-05-10T23:52:29.520Z,98706.56
2023-05-10T23:54:56.646Z,98714.66
2023-05-10T23:57:24.024Z,98703.19
2023-05-10T23:59:51.668Z,98713.38
